Time;durP1;ratioP1;P1;durP2;ratioP2;P2;SDS_P1;SDS_P2;PMS_P1;PMS_P2;Temp;Humidity;BMP_temperature;BMP_pressure;BME280_temperature;BME280_humidity;BME280_pressure;Samples;Min_cycle;Max_cycle;Signal;HPM_P1;HPM_P2
2021/10/25 00:00:09;;;;;;;13.88;7.43;;;;;;;7.36;73.21;101720.56;5092211;28;20040;-21
2021/10/25 00:02:34;;;;;;;12.05;7.47;;;;;;;6.80;74.88;101715.56;5091850;28;20097;-21
2021/10/25 00:05:00;;;;;;;13.35;7.20;;;;;;;6.80;75.34;101728.81;5091966;28;20465;-20
2021/10/25 00:07:25;;;;;;;11.15;6.95;;;;;;;6.62;76.13;101725.34;5091678;28;20047;-20
2021/10/25 00:09:50;;;;;;;18.30;12.15;;;;;;;6.77;75.59;101710.53;5091779;28;20054;-20
2021/10/25 00:12:16;;;;;;;17.20;10.20;;;;;;;7.44;73.21;101717.97;5091681;28;20553;-20
2021/10/25 00:14:41;;;;;;;18.70;11.18;;;;;;;7.32;72.75;101725.34;5091666;28;20032;-20
2021/10/25 00:17:07;;;;;;;17.08;11.05;;;;;;;6.78;75.32;101729.91;5091803;28;20028;-20
2021/10/25 00:19:32;;;;;;;14.23;9.20;;;;;;;6.74;75.52;101729.41;5091369;28;20426;-20
2021/10/25 00:21:58;;;;;;;16.90;10.05;;;;;;;7.21;74.12;101733.56;5073277;28;20085;-20
2021/10/25 00:24:23;;;;;;;16.92;8.70;;;;;;;7.69;72.60;101715.44;5091653;28;20036;-21
2021/10/25 00:26:49;;;;;;;19.15;9.40;;;;;;;7.17;73.01;101733.06;5091625;28;20032;-21
2021/10/25 00:29:14;;;;;;;15.15;9.15;;;;;;;7.47;72.11;101712.31;5091930;28;20087;-20
2021/10/25 00:31:40;;;;;;;14.15;8.02;;;;;;;7.08;73.09;101715.41;5090955;28;20063;-20
2021/10/25 00:34:05;;;;;;;14.88;7.82;;;;;;;7.05;72.82;101705.13;5073047;28;20062;-21
2021/10/25 00:36:31;;;;;;;13.90;8.43;;;;;;;7.87;70.47;101713.50;5091174;28;20028;-20
2021/10/25 00:38:57;;;;;;;13.32;8.27;;;;;;;7.95;69.80;101718.84;5091158;28;20460;-20
2021/10/25 00:41:22;;;;;;;13.75;8.23;;;;;;;7.48;70.89;101724.63;5073068;28;20493;-20
2021/10/25 00:43:48;;;;;;;12.38;7.63;;;;;;;6.86;73.97;101722.03;5072686;28;20024;-21
2021/10/25 00:46:13;;;;;;;12.05;8.10;;;;;;;7.64;71.35;101714.09;5091338;28;20036;-20
2021/10/25 00:48:38;;;;;;;13.57;7.47;;;;;;;7.50;72.08;101727.09;5091241;28;20036;-20
2021/10/25 00:51:05;;;;;;;11.52;7.78;;;;;;;7.61;70.68;101682.53;5090790;28;20111;-20
2021/10/25 00:53:31;;;;;;;11.75;7.88;;;;;;;7.76;70.32;101724.41;5090691;28;20107;-20
2021/10/25 00:55:57;;;;;;;12.52;7.80;;;;;;;7.42;71.07;101727.91;5072496;28;20143;-20
2021/10/25 00:58:22;;;;;;;13.30;8.18;;;;;;;6.72;74.38;101726.09;5091045;28;20036;-20
2021/10/25 01:00:48;;;;;;;13.18;7.45;;;;;;;6.42;75.53;101728.13;5072665;28;20087;-20
2021/10/25 01:03:13;;;;;;;12.77;7.65;;;;;;;6.50;75.06;101734.47;5089570;28;20105;-21
2021/10/25 01:05:39;;;;;;;13.02;8.25;;;;;;;6.60;74.36;101729.97;5090647;28;20036;-21
2021/10/25 01:08:05;;;;;;;12.95;7.80;;;;;;;7.04;71.80;101719.34;5072590;28;20092;-21
2021/10/25 01:10:30;;;;;;;13.85;7.53;;;;;;;6.35;73.83;101742.94;5090708;28;20032;-21
2021/10/25 01:12:57;;;;;;;15.93;9.15;;;;;;;7.00;72.39;101731.25;5090540;28;20770;-21
2021/10/25 01:15:23;;;;;;;13.95;9.32;;;;;;;6.75;71.63;101720.47;5090491;28;20503;-20
2021/10/25 01:17:55;;;;;;;13.07;7.93;;;;;;;6.34;73.96;101724.56;5090681;28;20055;-20
2021/10/25 01:20:22;;;;;;;16.00;9.70;;;;;;;6.64;73.25;101707.47;5090452;28;20031;-21
2021/10/25 01:22:47;;;;;;;13.68;8.48;;;;;;;6.83;72.32;101728.47;5090576;28;20028;-20
2021/10/25 01:25:13;;;;;;;22.95;10.15;;;;;;;6.78;72.54;101712.22;5090486;28;20039;-20
2021/10/25 01:27:39;;;;;;;18.75;11.25;;;;;;;7.21;71.03;101729.09;5089909;28;20553;-20
2021/10/25 01:30:05;;;;;;;20.58;11.18;;;;;;;6.17;74.31;101711.16;5072149;28;20042;-20
2021/10/25 01:32:31;;;;;;;15.40;8.95;;;;;;;5.84;75.08;101734.59;5071964;28;20048;-21
2021/10/25 01:34:56;;;;;;;18.60;10.07;;;;;;;5.76;75.62;101728.31;5055428;28;20024;-20
2021/10/25 01:37:22;;;;;;;16.38;8.88;;;;;;;5.99;74.16;101732.31;5089842;28;20403;-20
2021/10/25 01:39:48;;;;;;;14.13;8.88;;;;;;;6.29;73.14;101735.59;5090074;28;20023;-21
2021/10/25 01:42:13;;;;;;;15.68;9.02;;;;;;;6.81;70.89;101709.25;5089786;28;20111;-20
2021/10/25 01:44:39;;;;;;;13.85;9.07;;;;;;;7.18;70.63;101729.41;5089883;28;20024;-20
2021/10/25 01:47:05;;;;;;;17.10;8.75;;;;;;;6.92;70.45;101699.38;5089781;28;20067;-20
2021/10/25 01:49:30;;;;;;;15.02;9.52;;;;;;;7.17;69.69;101727.75;5071380;28;20117;-21
2021/10/25 01:51:56;;;;;;;15.27;8.75;;;;;;;6.53;72.14;101734.19;5089827;28;20416;-21
2021/10/25 01:54:21;;;;;;;16.02;9.70;;;;;;;6.50;72.09;101729.16;5089666;28;20455;-20
2021/10/25 01:56:47;;;;;;;16.60;9.50;;;;;;;7.11;69.69;101728.38;5071430;28;20039;-21
2021/10/25 01:59:13;;;;;;;13.85;8.57;;;;;;;7.23;68.97;101705.03;5089949;28;20031;-21
2021/10/25 02:01:38;;;;;;;16.33;10.15;;;;;;;6.95;69.73;101707.03;5089456;28;20035;-21
2021/10/25 02:04:04;;;;;;;13.43;8.43;;;;;;;7.11;69.46;101736.34;5089480;28;20031;-20
2021/10/25 02:06:30;;;;;;;13.80;8.32;;;;;;;6.45;71.48;101737.56;5089577;28;20064;-20
2021/10/25 02:08:55;;;;;;;13.65;7.72;;;;;;;5.84;74.47;101728.44;5054702;28;20411;-21
2021/10/25 02:11:21;;;;;;;14.60;8.25;;;;;;;5.70;74.78;101736.84;5089195;28;20035;-20
2021/10/25 02:13:47;;;;;;;14.02;8.15;;;;;;;6.41;71.81;101726.44;5071226;28;20024;-20
2021/10/25 02:16:13;;;;;;;12.30;7.80;;;;;;;6.22;72.02;101726.59;5054521;28;20036;-20
2021/10/25 02:18:39;;;;;;;15.10;8.32;;;;;;;6.20;72.94;101737.31;5089082;28;20396;-20
2021/10/25 02:21:05;;;;;;;14.45;9.02;;;;;;;6.44;72.71;101736.75;5071255;28;20472;-20
2021/10/25 02:23:30;;;;;;;13.40;8.38;;;;;;;6.84;70.67;101724.88;5089091;28;20077;-20
2021/10/25 02:25:56;;;;;;;15.77;8.35;;;;;;;6.64;70.54;101749.88;5089221;28;20040;-21
2021/10/25 02:28:21;;;;;;;13.60;7.38;;;;;;;6.86;70.17;101747.72;5089166;28;20085;-20
2021/10/25 02:30:47;;;;;;;11.00;7.22;;;;;;;6.90;69.13;101746.44;5088999;28;20036;-21
2021/10/25 02:33:14;;;;;;;14.73;7.25;;;;;;;6.71;70.43;101747.44;5088837;28;20173;-20
2021/10/25 02:35:39;;;;;;;10.55;6.97;;;;;;;6.55;71.38;101732.22;5088880;28;20063;-21
2021/10/25 02:38:05;;;;;;;12.43;7.68;;;;;;;6.78;69.50;101753.78;5089106;28;20063;-26
2021/10/25 02:40:30;;;;;;;13.45;8.48;;;;;;;6.95;68.95;101745.00;5089026;28;20892;-20
2021/10/25 02:42:56;;;;;;;11.95;7.00;;;;;;;7.20;68.52;101751.31;5070903;28;20032;-21
2021/10/25 02:45:22;;;;;;;14.40;7.80;;;;;;;6.94;68.81;101747.78;5070439;28;20062;-21
2021/10/25 02:47:47;;;;;;;13.45;7.97;;;;;;;6.27;70.68;101742.84;5088746;28;20032;-21
2021/10/25 02:50:13;;;;;;;13.55;8.13;;;;;;;6.69;69.52;101741.47;5088654;28;20032;-20
2021/10/25 02:52:39;;;;;;;11.05;7.50;;;;;;;5.82;72.51;101736.53;5089072;28;20032;-20
2021/10/25 02:55:05;;;;;;;13.70;7.35;;;;;;;5.14;74.13;101707.66;5088448;28;20032;-20
2021/10/25 02:57:30;;;;;;;11.45;7.38;;;;;;;5.03;75.17;101734.28;5070221;28;20031;-20
2021/10/25 02:59:55;;;;;;;11.93;7.65;;;;;;;5.11;74.78;101718.53;5088667;28;20840;-21
2021/10/25 03:02:21;;;;;;;13.45;7.50;;;;;;;5.03;76.06;101734.28;5088620;28;20035;-20
2021/10/25 03:04:46;;;;;;;12.48;7.20;;;;;;;4.79;76.11;101732.88;5070370;28;20040;-20
2021/10/25 03:07:12;;;;;;;13.43;6.97;;;;;;;5.62;73.04;101735.78;5088668;28;20043;-21
2021/10/25 03:09:38;;;;;;;11.48;7.68;;;;;;;5.88;71.79;101727.16;5088699;28;20028;-20
2021/10/25 03:12:04;;;;;;;11.05;7.45;;;;;;;6.16;70.00;101737.78;5088508;28;20134;-21
2021/10/25 03:14:30;;;;;;;13.15;8.25;;;;;;;6.08;69.21;101724.44;5088491;28;20032;-20
2021/10/25 03:16:55;;;;;;;14.32;8.52;;;;;;;6.30;68.71;101737.28;5088542;28;20523;-21
2021/10/25 03:19:20;;;;;;;16.50;8.18;;;;;;;6.04;69.07;101750.38;5088327;28;20082;-20
2021/10/25 03:21:46;;;;;;;22.38;12.55;;;;;;;5.91;70.54;101745.41;5088260;28;20051;-20
2021/10/25 03:24:11;;;;;;;19.42;10.80;;;;;;;5.74;71.85;101727.63;5088071;28;20054;-20
2021/10/25 03:26:37;;;;;;;18.15;10.60;;;;;;;6.02;70.67;101726.69;5087698;28;20043;-21
2021/10/25 03:29:03;;;;;;;19.45;10.25;;;;;;;6.17;70.32;101736.78;5088397;28;20415;-20
2021/10/25 03:31:28;;;;;;;20.25;12.13;;;;;;;5.89;69.37;101741.25;5087729;28;20052;-20
2021/10/25 03:33:54;;;;;;;16.77;10.73;;;;;;;4.79;73.83;101724.97;5088305;28;20062;-21
2021/10/25 03:36:21;;;;;;;20.13;12.05;;;;;;;4.38;75.59;101724.25;5088285;28;20052;-20
2021/10/25 03:38:47;;;;;;;23.38;13.63;;;;;;;4.34;75.95;101730.78;5087979;28;20419;-21
2021/10/25 03:41:24;;;;;;;26.75;14.40;;;;;;;4.33;76.08;101742.34;5088257;28;20039;-21
2021/10/25 03:43:57;;;;;;;26.25;15.43;;;;;;;4.03;76.26;101736.16;5088009;28;20391;-21
2021/10/25 03:49:11;;;;;;;45.67;24.83;;;;;;;4.78;73.72;101725.94;5088057;28;20805;-20
2021/10/25 03:51:39;;;;;;;36.67;20.83;;;;;;;4.57;75.35;101738.44;5088010;28;20075;-21
2021/10/25 03:57:14;;;;;;;30.42;17.73;;;;;;;3.96;77.35;101742.09;5088029;28;20079;-21
2021/10/25 04:00:11;;;;;;;34.47;17.52;;;;;;;4.71;74.15;101751.25;5077686;28;20094;-21
2021/10/25 04:13:37;;;;;;;37.58;21.30;;;;;;;4.92;73.13;101740.53;5076199;28;20044;-20
2021/10/25 04:27:01;;;;;;;33.60;22.00;;;;;;;4.75;71.39;101752.66;5066480;28;20046;-21
2021/10/25 04:29:29;;;;;;;22.38;13.65;;;;;;;4.40;72.84;101743.44;5051188;28;20043;-20
2021/10/25 04:31:55;;;;;;;;;;;;;;;4.88;71.54;101736.50;5050152;28;20432;-21
2021/10/25 04:34:20;;;;;;;19.30;11.95;;;;;;;5.14;70.07;101738.56;5067703;28;19912;-20
2021/10/25 04:36:46;;;;;;;25.10;10.60;;;;;;;5.37;69.40;101744.34;5051021;28;20105;-20
2021/10/25 04:39:13;;;;;;;17.25;11.50;;;;;;;4.79;69.90;101735.53;5070813;28;20032;-21
2021/10/25 04:41:38;;;;;;;20.10;12.65;;;;;;;4.58;71.25;101735.69;5070970;28;20079;-21
2021/10/25 04:44:04;;;;;;;18.63;11.98;;;;;;;4.41;72.54;101731.91;5070925;28;20099;-22
2021/10/25 04:46:30;;;;;;;18.50;13.60;;;;;;;3.88;73.64;101748.03;5071227;28;20039;-20
2021/10/25 04:48:55;;;;;;;22.20;14.95;;;;;;;4.42;72.31;101756.53;5070744;28;20090;-20
2021/10/25 04:51:21;;;;;;;21.48;12.85;;;;;;;4.65;71.27;101749.16;5070962;28;20527;-21
2021/10/25 04:53:46;;;;;;;17.23;12.02;;;;;;;4.97;69.86;101756.00;5070749;28;20036;-21
2021/10/25 04:56:11;;;;;;;20.42;12.32;;;;;;;4.39;71.08;101731.22;5052642;28;20036;-20
2021/10/25 04:58:37;;;;;;;29.98;18.75;;;;;;;4.32;71.70;101755.69;5070444;28;20043;-20
2021/10/25 05:01:02;;;;;;;28.23;17.80;;;;;;;4.46;72.55;101757.91;5070422;28;20036;-21
2021/10/25 05:03:29;;;;;;;25.30;16.88;;;;;;;4.92;71.86;101763.50;5070183;28;20062;-21
2021/10/25 05:05:54;;;;;;;28.33;19.33;;;;;;;4.78;71.55;101762.94;5070721;28;20111;-20
2021/10/25 05:08:21;;;;;;;31.55;20.17;;;;;;;5.15;70.36;101764.00;5070373;28;20131;-19
2021/10/25 05:10:46;;;;;;;27.23;17.92;;;;;;;5.23;69.43;101746.47;5070651;28;20024;-20
2021/10/25 05:13:12;;;;;;;38.28;25.98;;;;;;;5.26;69.88;101763.88;5070371;28;20064;-19
2021/10/25 05:15:38;;;;;;;34.40;22.27;;;;;;;4.25;73.11;101750.09;5070067;28;20037;-20
2021/10/25 05:18:04;;;;;;;32.67;22.23;;;;;;;4.00;75.68;101768.13;5070244;28;20086;-20
2021/10/25 05:20:29;;;;;;;20.58;13.35;;;;;;;3.56;76.44;101750.84;5070312;28;20030;-20
2021/10/25 05:22:55;;;;;;;15.15;10.50;;;;;;;4.16;75.19;101782.59;5070069;28;20029;-21
2021/10/25 05:25:20;;;;;;;14.43;9.13;;;;;;;3.95;75.41;101780.84;5052119;28;20032;-20
2021/10/25 05:27:46;;;;;;;13.57;9.68;;;;;;;3.92;76.73;101801.41;5070256;28;20424;-20
2021/10/25 05:30:11;;;;;;;26.20;15.85;;;;;;;3.81;77.95;101795.25;5069936;28;20028;-20
2021/10/25 05:32:37;;;;;;;13.18;7.20;;;;;;;3.49;79.42;101800.63;5051812;28;20040;-19
2021/10/25 05:35:03;;;;;;;25.50;7.55;;;;;;;3.58;78.36;101799.84;5070287;28;20033;-20
2021/10/25 05:37:28;;;;;;;18.85;8.20;;;;;;;3.69;77.86;101806.84;5051705;28;20020;-21
2021/10/25 05:39:56;;;;;;;106.13;36.67;;;;;;;3.67;78.84;101786.84;5070190;28;20472;-20
2021/10/25 05:42:21;;;;;;;108.10;42.83;;;;;;;3.82;78.72;101790.78;5052253;28;20031;-20
2021/10/25 05:44:47;;;;;;;104.45;37.58;;;;;;;4.01;79.01;101800.63;5069538;28;20037;-20
2021/10/25 05:47:13;;;;;;;100.70;35.97;;;;;;;4.11;79.30;101808.59;5069577;28;20036;-19
2021/10/25 05:49:39;;;;;;;110.70;35.75;;;;;;;4.47;79.13;101816.88;5050954;28;20480;-20
2021/10/25 05:52:04;;;;;;;135.23;44.58;;;;;;;4.80;78.27;101807.72;5051738;28;20476;-20
2021/10/25 05:54:31;;;;;;;49.53;19.90;;;;;;;5.38;76.13;101822.75;5069491;28;20765;-22
2021/10/25 05:56:56;;;;;;;34.63;16.30;;;;;;;5.92;73.64;101821.22;5069424;28;20196;-20
2021/10/25 05:59:25;;;;;;;15.75;9.32;;;;;;;6.17;73.44;101810.97;5068995;28;20040;-20
2021/10/25 06:04:36;;;;;;;13.43;9.52;;;;;;;5.63;75.50;101822.13;5069665;28;20116;-21
2021/10/25 06:07:02;;;;;;;17.73;11.37;;;;;;;5.15;77.07;101804.53;5069213;28;20405;-20
2021/10/25 06:09:33;;;;;;;16.70;10.52;;;;;;;5.72;76.76;101840.78;5069256;28;20036;-21
2021/10/25 06:11:58;;;;;;;15.88;9.45;;;;;;;5.67;77.03;101853.63;5051925;28;20024;-20
2021/10/25 06:14:31;;;;;;;12.18;8.10;;;;;;;5.86;75.84;101850.91;5069313;28;20036;-20
2021/10/25 06:17:00;;;;;;;12.73;8.48;;;;;;;5.75;76.32;101851.94;5068998;28;20036;-20
2021/10/25 06:19:25;;;;;;;12.57;7.97;;;;;;;6.14;74.95;101856.28;5051420;28;20070;-20
2021/10/25 06:21:52;;;;;;;12.23;7.88;;;;;;;6.62;73.41;101855.22;5068776;28;20416;-20
2021/10/25 06:24:17;;;;;;;13.07;7.75;;;;;;;6.62;73.86;101855.22;5068883;28;20036;-20
2021/10/25 06:26:44;;;;;;;11.80;8.20;;;;;;;6.73;73.91;101865.63;5069165;28;20503;-20
2021/10/25 06:29:09;;;;;;;13.65;9.65;;;;;;;6.77;73.56;101842.28;5068972;28;20032;-20
2021/10/25 06:31:35;;;;;;;15.70;9.55;;;;;;;7.33;72.63;101861.53;5068513;28;20565;-20
2021/10/25 06:34:07;;;;;;;15.43;9.95;;;;;;;7.33;71.18;101849.09;5068822;28;20051;-20
2021/10/25 06:36:35;;;;;;;15.35;10.45;;;;;;;7.63;71.76;101866.41;5068868;28;20056;-20
2021/10/25 06:39:13;;;;;;;14.88;8.38;;;;;;;6.67;76.52;101850.31;5068697;28;20125;-20
2021/10/25 06:41:38;;;;;;;15.35;8.48;;;;;;;6.78;75.60;101854.53;5068808;28;20028;-20
2021/10/25 06:44:06;;;;;;;13.07;8.38;;;;;;;7.30;74.57;101861.84;5068596;28;20062;-20
2021/10/25 06:46:31;;;;;;;26.57;16.73;;;;;;;7.79;73.15;101878.16;5068741;28;20051;-20
2021/10/25 06:48:57;;;;;;;72.85;36.65;;;;;;;8.15;72.31;101880.66;5068747;28;20032;-20
2021/10/25 06:51:22;;;;;;;18.52;11.18;;;;;;;8.57;71.17;101870.09;5068454;28;20036;-20
2021/10/25 06:53:47;;;;;;;27.17;16.58;;;;;;;8.78;69.97;101859.00;5068911;28;20082;-20
2021/10/25 06:56:13;;;;;;;32.22;20.38;;;;;;;9.04;70.21;101866.03;5068503;28;20538;-21
2021/10/25 06:58:39;;;;;;;38.97;21.52;;;;;;;9.13;69.87;101872.19;5068411;28;20033;-20
2021/10/25 07:01:04;;;;;;;16.58;10.50;;;;;;;9.29;69.79;101868.72;5049513;28;20039;-20
2021/10/25 07:03:30;;;;;;;16.90;10.48;;;;;;;9.38;67.84;101851.75;5067927;28;20404;-20
2021/10/25 07:05:59;;;;;;;14.88;9.18;;;;;;;9.41;67.72;101864.72;5068397;28;20036;-20
2021/10/25 07:08:27;;;;;;;16.42;9.82;;;;;;;9.35;68.44;101868.06;5068253;28;20573;-21
2021/10/25 07:10:52;;;;;;;31.65;17.55;;;;;;;9.28;70.37;101870.56;5068503;28;20040;-20
2021/10/25 07:13:19;;;;;;;18.48;9.75;;;;;;;9.15;72.69;101868.34;5068073;28;20035;-20
2021/10/25 07:15:48;;;;;;;14.07;10.50;;;;;;;9.47;71.39;101872.03;5068362;28;20480;-20
2021/10/25 07:18:23;;;;;;;14.55;9.52;;;;;;;9.21;72.69;101867.72;5068277;28;20028;-20
2021/10/25 07:21:29;;;;;;;14.80;9.65;;;;;;;9.61;71.80;101847.38;5068194;28;20122;-20
2021/10/25 08:02:39;;;;;;;14.98;7.78;;;;;;;10.88;62.16;101844.75;4986016;28;20101;-20
2021/10/25 08:10:07;;;;;;;9.85;5.53;;;;;;;10.97;58.83;101826.81;5067870;28;19909;-20
2021/10/25 08:12:35;;;;;;;23.63;12.98;;;;;;;11.63;57.77;101835.94;5070771;28;20557;-20
2021/10/25 08:15:04;;;;;;;33.20;15.48;;;;;;;11.95;57.91;101847.34;5071482;28;20472;-20
2021/10/25 08:17:41;;;;;;;8.40;5.45;;;;;;;11.79;56.22;101832.28;5071343;28;20055;-20
2021/10/25 08:20:08;;;;;;;23.48;11.32;;;;;;;11.21;59.80;101845.31;5071727;28;20105;-19
2021/10/25 08:22:33;;;;;;;11.60;5.38;;;;;;;11.38;57.55;101813.13;5071249;28;20067;-20
2021/10/25 08:24:59;;;;;;;13.18;5.93;;;;;;;11.78;56.28;101829.78;5071081;28;20138;-20
2021/10/25 08:27:26;;;;;;;11.00;5.57;;;;;;;12.25;56.18;101833.94;5071196;28;20028;-20
2021/10/25 08:29:51;;;;;;;10.45;5.55;;;;;;;12.04;55.75;101829.38;5071435;28;20043;-20
2021/10/25 08:40:27;;;;;;;8.15;3.83;;;;;;;11.73;52.91;101832.16;5071408;28;20043;-20
2021/10/25 08:42:53;;;;;;;8.52;4.22;;;;;;;12.34;53.39;101824.81;5070938;28;20095;-20
2021/10/25 08:45:28;;;;;;;9.23;4.93;;;;;;;12.29;52.43;101842.44;5070814;28;20064;-20
2021/10/25 08:47:53;;;;;;;9.07;4.97;;;;;;;12.09;51.61;101818.09;5070920;28;20035;-20
2021/10/25 08:50:21;;;;;;;9.05;4.80;;;;;;;12.38;54.14;101820.75;5052731;28;20028;-20
2021/10/25 08:52:47;;;;;;;10.95;5.05;;;;;;;12.25;56.16;101808.00;5070867;28;20130;-20
2021/10/25 08:55:16;;;;;;;8.88;4.40;;;;;;;12.46;51.81;101807.25;5052715;28;20044;-20
2021/10/25 08:57:42;;;;;;;9.57;4.38;;;;;;;11.92;53.43;101814.78;5070498;28;20024;-20
2021/10/25 09:00:09;;;;;;;10.23;4.22;;;;;;;11.49;54.82;101804.69;5070764;28;20066;-21
2021/10/25 09:02:35;;;;;;;9.25;4.45;;;;;;;12.01;52.99;101819.03;5070411;28;20075;-21
2021/10/25 09:05:10;;;;;;;10.98;4.90;;;;;;;12.04;55.05;101824.84;5070659;28;20088;-20
2021/10/25 09:08:02;;;;;;;11.68;4.60;;;;;;;12.31;57.01;101817.16;5070735;28;20021;-20
2021/10/25 09:10:39;;;;;;;9.20;5.13;;;;;;;12.59;54.32;101822.63;5070452;28;20036;-20
2021/10/25 09:13:18;;;;;;;9.73;4.90;;;;;;;13.21;51.17;101820.34;5070357;28;20027;-20
2021/10/25 09:16:06;;;;;;;11.50;5.82;;;;;;;12.86;50.89;101817.53;5053877;28;20039;-19
2021/10/25 09:18:32;;;;;;;13.63;5.43;;;;;;;12.63;53.06;101782.94;5070041;28;20028;-20
2021/10/25 09:21:05;;;;;;;8.90;5.30;;;;;;;12.70;52.14;101786.50;5070349;28;20043;-20
2021/10/25 09:23:37;;;;;;;10.82;4.85;;;;;;;13.03;52.21;101810.91;5068844;28;20024;-19
2021/10/25 09:26:08;;;;;;;10.85;5.97;;;;;;;13.18;51.89;101784.06;5070307;28;20036;-20
2021/10/25 09:28:54;;;;;;;9.55;5.15;;;;;;;13.80;50.82;101800.38;5070258;28;20024;-20
2021/10/25 09:31:26;;;;;;;10.63;5.07;;;;;;;13.86;49.58;101786.16;5069648;28;20507;-21
2021/10/25 09:34:01;;;;;;;8.20;4.88;;;;;;;14.36;47.88;101791.31;5070043;28;20568;-21
2021/10/25 09:36:51;;;;;;;9.43;5.80;;;;;;;14.36;50.04;101784.09;5070024;28;20040;-20
2021/10/25 09:39:25;;;;;;;7.68;4.25;;;;;;;14.34;46.75;101772.72;5069738;28;20519;-22
2021/10/25 09:50:05;;;;;;;7.55;4.22;;;;;;;13.93;45.87;101770.91;5054444;28;20070;-20
2021/10/25 09:52:42;;;;;;;7.53;4.23;;;;;;;14.53;46.34;101756.91;5069792;28;20036;-19
2021/10/25 09:55:16;;;;;;;8.00;3.90;;;;;;;15.20;43.57;101766.69;5069667;28;20040;-20
2021/10/25 10:00:11;;;;;;;8.23;5.03;;;;;;;13.99;49.83;101743.31;5069484;28;20559;-19
2021/10/25 10:02:37;;;;;;;8.88;4.00;;;;;;;13.69;48.86;101755.34;5051635;28;20116;-20
2021/10/25 10:05:05;;;;;;;8.77;4.07;;;;;;;13.81;49.82;101745.69;5069390;28;20037;-20
2021/10/25 10:07:31;;;;;;;8.60;4.25;;;;;;;14.56;46.58;101738.53;5068939;28;20020;-20
2021/10/25 10:09:56;;;;;;;10.90;4.05;;;;;;;15.01;45.68;101746.00;5069466;28;20384;-20
2021/10/25 10:12:24;;;;;;;7.57;3.72;;;;;;;15.42;42.95;101748.44;5069204;28;20025;-21
2021/10/25 10:14:54;;;;;;;7.22;4.05;;;;;;;15.46;44.26;101736.22;5051682;28;20024;-22
2021/10/25 10:17:31;;;;;;;8.05;3.70;;;;;;;14.64;45.40;101710.69;5068921;28;20050;-20
2021/10/25 10:20:06;;;;;;;8.45;4.03;;;;;;;14.92;45.76;101736.53;5035951;28;20110;-20
2021/10/25 10:22:32;;;;;;;11.52;4.25;;;;;;;14.66;44.52;101712.13;5069208;28;20032;-20
2021/10/25 10:24:58;;;;;;;8.02;3.60;;;;;;;15.05;44.26;101704.25;5034501;28;20542;-21
2021/10/25 10:27:24;;;;;;;7.03;4.03;;;;;;;15.38;43.30;101716.81;5050848;28;20024;-20
2021/10/25 10:29:59;;;;;;;10.77;3.65;;;;;;;15.29;42.45;101693.91;5069097;28;20078;-20
2021/10/25 10:32:31;;;;;;;10.25;4.60;;;;;;;15.84;42.95;101707.81;5068629;28;20075;-20
2021/10/25 10:35:01;;;;;;;8.55;4.00;;;;;;;15.75;40.27;101699.16;5068881;28;20133;-19
2021/10/25 10:37:28;;;;;;;10.45;4.47;;;;;;;16.78;38.63;101698.09;5068652;28;20086;-20
2021/10/25 10:39:57;;;;;;;10.55;4.22;;;;;;;17.36;38.14;101688.84;5068765;28;20033;-20
2021/10/25 10:42:29;;;;;;;11.10;3.95;;;;;;;17.03;37.69;101692.72;5068648;28;20116;-20
2021/10/25 10:44:59;;;;;;;7.57;3.97;;;;;;;17.02;38.24;101693.78;5068798;28;20032;-20
2021/10/25 10:47:24;;;;;;;10.45;4.40;;;;;;;16.63;39.05;101673.34;5068699;28;20125;-20
2021/10/25 10:49:55;;;;;;;10.38;4.65;;;;;;;17.14;39.36;101684.94;5050723;28;20527;-20
2021/10/25 10:52:42;;;;;;;7.60;4.10;;;;;;;16.99;39.20;101674.53;5068351;28;20872;-19
2021/10/25 10:55:14;;;;;;;;;;;;;;;16.56;39.79;101675.28;5068884;28;20045;-21
2021/10/25 11:00:23;;;;;;;7.38;4.32;;;;;;;15.70;40.70;101672.03;5068421;28;20029;-20
2021/10/25 11:02:58;;;;;;;9.15;5.47;;;;;;;15.98;41.54;101652.09;5068427;28;20029;-20
2021/10/25 11:05:32;;;;;;;8.27;4.25;;;;;;;16.29;38.56;101648.56;5050354;28;20056;-20
2021/10/25 11:08:09;;;;;;;9.10;4.35;;;;;;;17.09;38.57;101647.88;5068374;28;20044;-20
2021/10/25 11:10:37;;;;;;;8.85;4.55;;;;;;;16.69;38.51;101648.22;5050240;28;20390;-20
2021/10/25 11:13:14;;;;;;;9.40;4.72;;;;;;;17.37;38.72;101658.16;5068390;28;20037;-20
2021/10/25 11:15:52;;;;;;;13.48;4.35;;;;;;;17.73;37.40;101634.06;5068084;28;20044;-20
2021/10/25 11:18:32;;;;;;;8.95;4.63;;;;;;;17.60;38.69;101630.47;5068377;28;20032;-20
2021/10/25 11:21:18;;;;;;;9.15;4.30;;;;;;;17.68;35.75;101632.88;5068572;28;20032;-20
2021/10/25 11:23:55;;;;;;;8.80;4.45;;;;;;;16.20;38.01;101625.63;5068256;28;20459;-20
2021/10/25 11:26:24;;;;;;;9.98;4.85;;;;;;;16.62;37.68;101634.81;5067973;28;20029;-19
2021/10/25 11:29:02;;;;;;;8.02;4.80;;;;;;;16.95;35.76;101622.13;5068184;28;20028;-20
2021/10/25 11:31:28;;;;;;;9.35;4.80;;;;;;;17.82;36.54;101621.91;5033989;28;20500;-20
2021/10/25 11:33:54;;;;;;;9.88;5.20;;;;;;;17.79;35.00;101622.34;5068334;28;20033;-20
2021/10/25 11:36:22;;;;;;;12.93;6.72;;;;;;;17.35;35.12;101632.47;5067717;28;20039;-20
2021/10/25 11:38:47;;;;;;;7.75;4.53;;;;;;;16.76;35.78;101607.78;5050073;28;20037;-20
2021/10/25 11:41:13;;;;;;;8.25;4.38;;;;;;;18.31;35.43;101619.09;5068142;28;20090;-20
2021/10/25 11:43:38;;;;;;;8.05;4.28;;;;;;;18.86;32.78;101599.91;5067840;28;20028;-20
2021/10/25 11:46:24;;;;;;;8.15;4.85;;;;;;;18.09;32.68;101606.16;5068305;28;20119;-20
2021/10/25 11:48:54;;;;;;;17.83;9.45;;;;;;;18.55;34.91;101604.59;5071964;28;20411;-20
2021/10/25 11:51:20;;;;;;;26.50;12.50;;;;;;;18.76;33.66;101592.38;5071797;28;20042;-21
2021/10/25 11:53:45;;;;;;;14.88;7.70;;;;;;;19.06;33.94;101594.94;5071995;28;20033;-20
2021/10/25 11:56:14;;;;;;;8.15;4.50;;;;;;;18.07;35.77;101602.88;5072161;28;20086;-20
2021/10/25 11:58:40;;;;;;;8.32;4.20;;;;;;;17.62;35.50;101579.81;5071704;28;20082;-20
2021/10/25 12:01:11;;;;;;;7.85;3.63;;;;;;;18.15;34.13;101593.63;5053740;28;20105;-19
2021/10/25 12:03:37;;;;;;;6.82;3.97;;;;;;;17.84;36.75;101587.44;5054663;28;20492;-20
2021/10/25 12:06:03;;;;;;;7.63;4.45;;;;;;;18.59;33.98;101596.81;5053637;28;20033;-20
2021/10/25 12:08:28;;;;;;;7.53;4.47;;;;;;;19.03;33.40;101592.72;5071507;28;20029;-20
2021/10/25 12:10:55;;;;;;;9.25;4.00;;;;;;;17.97;33.58;101591.81;5071658;28;20036;-20
2021/10/25 12:13:21;;;;;;;8.25;5.68;;;;;;;16.86;35.37;101582.00;5071300;28;20484;-20
2021/10/25 12:15:53;;;;;;;10.18;4.10;;;;;;;16.75;35.61;101585.38;5071586;28;20026;-20
2021/10/25 12:18:20;;;;;;;8.85;3.90;;;;;;;17.98;34.59;101570.00;5071604;28;20025;-20
2021/10/25 12:20:46;;;;;;;8.65;4.00;;;;;;;19.01;32.89;101585.91;5071339;28;20081;-20
2021/10/25 12:23:19;;;;;;;7.80;3.97;;;;;;;19.10;31.60;101584.44;5071406;28;20385;-21
2021/10/25 12:25:56;;;;;;;11.77;5.47;;;;;;;17.14;35.71;101571.72;5071148;28;20036;-20
2021/10/25 12:28:21;;;;;;;10.93;4.15;;;;;;;17.07;36.62;101582.59;5054839;28;20025;-19
2021/10/25 12:30:50;;;;;;;18.17;10.18;;;;;;;17.45;34.28;101543.75;5071283;28;20411;-19
2021/10/25 12:33:24;;;;;;;8.23;4.55;;;;;;;18.83;32.62;101568.75;5053488;28;20788;-20
2021/10/25 12:35:49;;;;;;;6.70;3.08;;;;;;;18.65;32.14;101575.09;5054103;28;20027;-20
2021/10/25 12:38:18;;;;;;;7.57;3.38;;;;;;;19.09;30.97;101573.91;5070991;28;20032;-20
2021/10/25 12:40:52;;;;;;;6.22;3.75;;;;;;;19.28;30.66;101554.53;5071033;28;20103;-20
2021/10/25 12:43:19;;;;;;;7.07;3.10;;;;;;;18.48;31.13;101549.84;5070613;28;20041;-20
2021/10/25 12:46:02;;;;;;;7.43;3.72;;;;;;;18.32;32.41;101554.06;5070790;28;20505;-19
2021/10/25 12:48:38;;;;;;;10.50;5.90;;;;;;;18.80;31.25;101558.44;5070889;28;20036;-21
2021/10/25 12:51:04;;;;;;;9.63;4.18;;;;;;;18.65;31.70;101560.75;5037562;28;20532;-20
2021/10/25 12:53:31;;;;;;;9.38;4.50;;;;;;;18.59;32.20;101543.63;5070709;28;20036;-20
2021/10/25 12:55:57;;;;;;;8.55;4.47;;;;;;;19.18;32.62;101559.75;5053100;28;20040;-20
2021/10/25 12:58:24;;;;;;;8.50;4.38;;;;;;;20.25;29.62;101557.34;5070562;28;20495;-20
2021/10/25 13:00:49;;;;;;;7.38;3.55;;;;;;;19.94;29.89;101550.59;5070625;28;20036;-20